Time;durP1;ratioP1;P1;durP2;ratioP2;P2;SDS_P1;SDS_P2;PMS_P1;PMS_P2;Temp;Humidity;BMP_temperature;BMP_pressure;BME280_temperature;BME280_humidity;BME280_pressure;Samples;Min_cycle;Max_cycle;Signal;HPM_P1;HPM_P2
2022/01/21 00:00:30;;;;;;;7.53;2.47;;;2.20;99.90;;;;;;1739944;82;21204;-73
2022/01/21 00:02:57;;;;;;;15.60;3.45;;;2.20;99.90;;;;;;1732186;82;21106;-72
2022/01/21 00:05:24;;;;;;;4.45;2.00;;;2.10;99.90;;;;;;1739881;82;21078;-73
2022/01/21 00:07:52;;;;;;;9.70;2.47;;;2.10;99.90;;;;;;1739834;82;21578;-74
2022/01/21 00:10:19;;;;;;;4.45;1.82;;;2.00;99.90;;;;;;1739961;81;21098;-74
2022/01/21 00:12:51;;;;;;;8.90;2.77;;;2.00;99.90;;;;;;1739978;82;21389;-74
2022/01/21 00:15:15;;;;;;;9.93;2.47;;;2.00;99.90;;;;;;1739800;82;21207;-74
2022/01/21 00:17:43;;;;;;;7.30;2.12;;;2.00;99.90;;;;;;1739861;82;21479;-72
2022/01/21 00:31:11;;;;;;;5.45;2.20;;;1.90;99.90;;;;;;1739864;82;21191;-74
2022/01/21 00:33:38;;;;;;;8.60;1.95;;;1.90;99.90;;;;;;1739776;82;21164;-74
2022/01/21 00:36:08;;;;;;;9.48;2.22;;;1.90;99.90;;;;;;1739812;82;21549;-73
2022/01/21 00:38:36;;;;;;;13.25;2.58;;;1.80;99.90;;;;;;1739889;82;21122;-74
2022/01/21 00:41:06;;;;;;;6.37;2.58;;;1.80;99.90;;;;;;1739906;82;21078;-74
2022/01/21 00:43:43;;;;;;;11.30;2.52;;;1.80;99.90;;;;;;1739896;82;21549;-74
2022/01/21 00:46:02;;;;;;;6.00;2.30;;;1.80;99.90;;;;;;1740027;82;21184;-74
2022/01/21 00:48:29;;;;;;;8.48;2.70;;;1.70;99.90;;;;;;1735588;82;21130;-74
2022/01/21 00:50:57;;;;;;;10.18;2.37;;;1.60;99.90;;;;;;1739843;82;21071;-72
2022/01/21 00:53:24;;;;;;;7.17;2.60;;;1.70;99.90;;;;;;1739998;82;21098;-74
2022/01/21 00:55:51;;;;;;;9.13;2.00;;;1.60;99.90;;;;;;1739913;82;21074;-72
2022/01/21 00:58:18;;;;;;;10.18;2.52;;;1.70;99.90;;;;;;1739900;82;21581;-73
2022/01/21 01:00:46;;;;;;;11.78;2.77;;;1.70;99.90;;;;;;1740124;82;21077;-73
2022/01/21 01:03:14;;;;;;;5.83;1.95;;;1.70;99.90;;;;;;1740070;82;21066;-73
2022/01/21 01:05:42;;;;;;;7.00;2.33;;;1.70;99.90;;;;;;1740055;81;21106;-73
2022/01/21 01:08:09;;;;;;;5.75;2.40;;;1.80;99.90;;;;;;1739985;82;21459;-72
2022/01/21 01:21:24;;;;;;;11.05;3.12;;;1.80;99.90;;;;;;1739840;82;21184;-73
2022/01/21 01:29:25;;;;;;;16.45;2.10;;;1.80;99.90;;;;;;1739989;82;21115;-72
2022/01/21 01:31:52;;;;;;;8.85;2.62;;;1.80;99.90;;;;;;1739907;82;21230;-72
2022/01/21 01:34:19;;;;;;;5.80;2.12;;;1.80;99.90;;;;;;1739989;82;21543;-72
2022/01/21 01:36:47;;;;;;;7.10;1.90;;;1.80;99.90;;;;;;1739990;82;21141;-72
2022/01/21 01:39:27;;;;;;;9.48;1.75;;;1.80;99.90;;;;;;1739823;82;21491;-73
2022/01/21 01:41:51;;;;;;;8.85;2.45;;;1.80;99.90;;;;;;1734891;81;21083;-73
2022/01/21 01:49:44;;;;;;;6.17;2.17;;;1.90;99.90;;;;;;1739849;82;21107;-72
2022/01/21 01:52:13;;;;;;;5.97;1.85;;;1.90;99.90;;;;;;1739943;82;21124;-72
2022/01/21 01:54:43;;;;;;;11.90;2.40;;;1.90;99.90;;;;;;1740173;81;21576;-73
2022/01/21 01:57:11;;;;;;;9.65;2.02;;;1.90;99.90;;;;;;1739982;81;21196;-73
2022/01/21 01:59:38;;;;;;;9.35;1.98;;;2.00;99.90;;;;;;1739958;82;21252;-73
2022/01/21 02:02:11;;;;;;;9.45;2.15;;;2.00;99.90;;;;;;1739925;82;21058;-73
2022/01/21 02:04:40;;;;;;;6.80;2.12;;;2.00;99.90;;;;;;1739955;82;21226;-72
2022/01/21 02:07:07;;;;;;;6.37;2.33;;;2.00;99.90;;;;;;1739931;82;21082;-74
2022/01/21 02:09:34;;;;;;;4.55;1.87;;;1.90;99.90;;;;;;1739790;82;21074;-72
2022/01/21 02:12:02;;;;;;;6.80;2.12;;;1.90;99.90;;;;;;1739918;82;21083;-73
2022/01/21 02:14:36;;;;;;;6.97;2.08;;;1.90;99.90;;;;;;1739627;82;21098;-72
2022/01/21 02:22:19;;;;;;;6.47;2.22;;;1.90;99.90;;;;;;1739833;82;21209;-72
2022/01/21 02:27:19;;;;;;;11.33;2.52;;;1.90;99.90;;;;;;1739818;82;21222;-72
2022/01/21 02:29:51;;;;;;;12.20;3.00;;;2.00;99.90;;;;;;1739877;82;21055;-73
2022/01/21 02:32:17;;;;;;;8.75;2.58;;;2.00;99.90;;;;;;1838803;75;21148;-72
2022/01/21 02:34:45;;;;;;;8.48;2.72;;;1.90;99.90;;;;;;1850966;76;21583;-71
2022/01/21 02:37:15;;;;;;;9.40;2.55;;;1.90;99.90;;;;;;1849410;76;21065;-71
2022/01/21 02:39:43;;;;;;;14.63;2.12;;;1.90;99.90;;;;;;1838919;77;21146;-73
2022/01/21 02:42:10;;;;;;;6.58;2.10;;;1.90;99.90;;;;;;1835645;77;21086;-75
2022/01/21 02:44:39;;;;;;;10.15;2.45;;;1.90;99.90;;;;;;1837886;77;21046;-73
2022/01/21 02:47:07;;;;;;;9.70;2.80;;;1.90;99.90;;;;;;1843319;77;21257;-71
2022/01/21 02:49:34;;;;;;;16.48;2.40;;;1.80;99.90;;;;;;1858743;77;21025;-71
2022/01/21 02:52:02;;;;;;;9.38;2.58;;;1.80;99.90;;;;;;1858673;77;21201;-72
2022/01/21 02:54:33;;;;;;;7.92;2.67;;;1.80;99.90;;;;;;1847578;76;21478;-72
2022/01/21 02:57:01;;;;;;;7.50;2.15;;;1.80;99.90;;;;;;1882487;76;21192;-73
2022/01/21 02:59:29;;;;;;;11.50;2.80;;;1.70;99.90;;;;;;1838356;77;21227;-73
2022/01/21 03:01:56;;;;;;;9.03;2.00;;;1.70;99.90;;;;;;1840410;77;21133;-73
2022/01/21 03:04:33;;;;;;;7.15;2.20;;;1.70;99.90;;;;;;1858798;77;21417;-73
2022/01/21 03:06:52;;;;;;;14.05;2.42;;;1.70;99.90;;;;;;1848800;77;21071;-73
2022/01/21 03:09:20;;;;;;;9.28;2.27;;;1.80;99.90;;;;;;1850099;76;21162;-73
2022/01/21 03:11:47;;;;;;;11.70;2.95;;;1.70;99.90;;;;;;1848176;76;21140;-73
2022/01/21 03:14:14;;;;;;;10.53;2.00;;;1.80;99.90;;;;;;1828560;77;21474;-72
2022/01/21 03:16:41;;;;;;;5.75;2.00;;;1.80;99.90;;;;;;1877772;76;21089;-72
2022/01/21 03:19:09;;;;;;;9.18;2.45;;;1.80;99.90;;;;;;1836416;77;21447;-74
2022/01/21 03:21:37;;;;;;;11.45;2.67;;;1.80;99.90;;;;;;1880350;76;21086;-74
2022/01/21 03:24:05;;;;;;;12.25;2.45;;;1.80;99.90;;;;;;1835377;77;21165;-73
2022/01/21 03:26:32;;;;;;;9.88;2.30;;;1.90;99.90;;;;;;1874184;76;21028;-73
2022/01/21 03:29:01;;;;;;;7.05;2.30;;;1.80;99.90;;;;;;1829137;77;21078;-74
2022/01/21 03:31:29;;;;;;;7.90;2.27;;;1.80;99.90;;;;;;1855329;76;21086;-74
2022/01/21 03:33:59;;;;;;;8.65;2.25;;;1.90;99.90;;;;;;1839608;78;21506;-74
2022/01/21 03:36:29;;;;;;;5.83;2.10;;;1.90;99.90;;;;;;1850705;77;21409;-74
2022/01/21 03:38:56;;;;;;;11.50;2.12;;;1.80;99.90;;;;;;1849693;76;21098;-73
2022/01/21 03:41:23;;;;;;;11.12;2.17;;;1.80;99.90;;;;;;1857174;75;21443;-72
2022/01/21 03:43:51;;;;;;;10.20;2.30;;;1.90;99.90;;;;;;1834201;76;21098;-73
2022/01/21 03:46:18;;;;;;;17.17;2.67;;;1.90;99.90;;;;;;1873973;76;21035;-72
2022/01/21 03:48:48;;;;;;;11.70;2.33;;;1.80;99.90;;;;;;1838795;77;21088;-74
2022/01/21 03:51:14;;;;;;;11.73;2.62;;;1.80;99.90;;;;;;1864239;75;21128;-73
2022/01/21 03:53:42;;;;;;;11.70;2.50;;;1.80;99.90;;;;;;1875852;76;21015;-73
2022/01/21 03:56:09;;;;;;;9.13;2.98;;;1.80;99.90;;;;;;1827847;77;21576;-73
2022/01/21 03:58:36;;;;;;;13.45;3.33;;;1.80;99.90;;;;;;1866456;76;21075;-73
2022/01/21 04:01:03;;;;;;;10.03;2.70;;;1.80;99.90;;;;;;1867782;76;21064;-73
2022/01/21 04:03:31;;;;;;;3.27;1.80;;;1.80;99.90;;;;;;1870054;75;21219;-73
2022/01/21 04:05:58;;;;;;;17.75;2.65;;;1.80;99.90;;;;;;1883784;74;21075;-73
2022/01/21 04:08:25;;;;;;;9.15;2.60;;;1.70;99.90;;;;;;1843102;77;21102;-74
2022/01/21 04:10:53;;;;;;;8.28;2.67;;;1.70;99.90;;;;;;1875319;76;21096;-72
2022/01/21 04:13:22;;;;;;;17.00;2.80;;;1.70;99.90;;;;;;1820320;77;21074;-74
2022/01/21 04:15:50;;;;;;;13.32;2.90;;;1.70;99.90;;;;;;1817880;77;21130;-73
2022/01/21 04:18:18;;;;;;;11.28;2.30;;;1.70;99.90;;;;;;1862979;76;21034;-73
2022/01/21 04:20:46;;;;;;;7.37;2.25;;;1.70;99.90;;;;;;1874421;76;21047;-73
2022/01/21 04:23:16;;;;;;;9.70;2.70;;;1.70;99.90;;;;;;1870260;75;21182;-73
2022/01/21 04:25:43;;;;;;;12.98;2.83;;;1.70;99.90;;;;;;1875834;76;21133;-74
2022/01/21 04:28:11;;;;;;;8.83;2.35;;;1.60;99.90;;;;;;1825484;77;21068;-73
2022/01/21 04:30:38;;;;;;;9.10;2.65;;;1.60;99.90;;;;;;1850541;76;21089;-72
2022/01/21 04:33:06;;;;;;;11.93;2.62;;;1.60;99.90;;;;;;1830730;77;21459;-73
2022/01/21 04:35:35;;;;;;;8.00;2.02;;;1.60;99.90;;;;;;1850181;76;21534;-72
2022/01/21 04:38:06;;;;;;;11.48;2.60;;;1.60;99.90;;;;;;1878888;74;21096;-72
2022/01/21 04:40:36;;;;;;;9.58;2.52;;;1.60;99.90;;;;;;1869157;76;21182;-72
2022/01/21 04:48:33;;;;;;;9.20;2.60;;;1.50;99.90;;;;;;1872492;76;21083;-71
2022/01/21 04:51:13;;;;;;;11.80;3.02;;;1.50;99.90;;;;;;1823720;77;21499;-72
2022/01/21 04:53:32;;;;;;;16.85;2.90;;;1.60;99.90;;;;;;1880498;76;21091;-71
2022/01/21 04:55:58;;;;;;;11.35;2.60;;;1.50;99.90;;;;;;1835821;77;21086;-73
2022/01/21 04:58:25;;;;;;;8.80;2.47;;;1.50;99.90;;;;;;1823948;78;21420;-70
2022/01/21 05:00:53;;;;;;;6.17;2.65;;;1.50;99.90;;;;;;1858689;77;21154;-72
2022/01/21 05:03:20;;;;;;;8.38;3.10;;;1.50;99.90;;;;;;1858569;77;21168;-72
2022/01/21 05:05:47;;;;;;;8.08;2.70;;;1.50;99.90;;;;;;1855359;76;21083;-72
2022/01/21 05:08:42;;;;;;;13.88;2.92;;;1.50;99.90;;;;;;1856102;77;21076;-72
2022/01/21 05:11:03;;;;;;;11.00;2.70;;;1.60;99.90;;;;;;1850774;76;21083;-72
2022/01/21 05:13:37;;;;;;;10.35;3.50;;;1.50;99.90;;;;;;1848697;75;21090;-72
2022/01/21 05:16:04;;;;;;;6.60;2.80;;;1.60;99.90;;;;;;1851070;77;21555;-72
2022/01/21 05:18:28;;;;;;;11.93;3.30;;;1.50;99.90;;;;;;1848094;75;21127;-73
2022/01/21 05:20:56;;;;;;;6.25;2.80;;;1.50;99.90;;;;;;1848964;76;21062;-72
2022/01/21 05:23:24;;;;;;;12.82;2.75;;;1.50;99.90;;;;;;1848489;75;21095;-72
2022/01/21 05:25:52;;;;;;;11.03;3.30;;;1.50;99.90;;;;;;1855747;77;21052;-72
2022/01/21 05:28:19;;;;;;;11.33;3.27;;;1.50;99.90;;;;;;1847883;76;21146;-72
2022/01/21 05:30:46;;;;;;;11.03;3.12;;;1.40;99.90;;;;;;1856542;77;21079;-73
2022/01/21 05:33:13;;;;;;;9.45;2.90;;;1.50;99.90;;;;;;1852183;76;21241;-73
2022/01/21 05:35:41;;;;;;;10.05;3.22;;;1.50;99.90;;;;;;1857883;77;21055;-75
2022/01/21 05:38:08;;;;;;;7.25;2.75;;;1.50;99.90;;;;;;1855885;76;21056;-74
2022/01/21 05:40:37;;;;;;;11.28;3.20;;;1.40;99.90;;;;;;1872198;75;21545;-73
2022/01/21 05:43:05;;;;;;;11.38;3.15;;;1.40;99.90;;;;;;1829282;77;21423;-72
2022/01/21 05:48:18;;;;;;;9.73;3.22;;;1.40;99.90;;;;;;1869828;76;21083;-74
2022/01/21 05:50:45;;;;;;;14.10;3.58;;;1.30;99.90;;;;;;1881229;76;21552;-73
2022/01/21 05:53:13;;;;;;;13.95;3.00;;;1.40;99.90;;;;;;1884945;76;21086;-74
2022/01/21 05:55:42;;;;;;;13.13;3.02;;;1.50;99.90;;;;;;1824900;77;21106;-74
2022/01/21 05:58:10;;;;;;;9.65;3.00;;;1.40;99.90;;;;;;1879118;76;21063;-73
2022/01/21 06:00:38;;;;;;;11.75;3.50;;;1.40;99.90;;;;;;1874275;76;21158;-72
2022/01/21 06:03:06;;;;;;;9.38;3.08;;;1.40;99.90;;;;;;1877258;76;21032;-71
2022/01/21 06:05:33;;;;;;;12.60;3.37;;;1.40;99.90;;;;;;1819181;77;21145;-72
2022/01/21 06:08:02;;;;;;;10.43;2.95;;;1.50;99.90;;;;;;1871223;76;21283;-72
2022/01/21 06:10:29;;;;;;;9.15;3.27;;;1.50;99.90;;;;;;1818657;77;21090;-73
2022/01/21 06:12:57;;;;;;;7.17;3.02;;;1.50;99.90;;;;;;1802889;79;21161;-72
2022/01/21 06:15:24;;;;;;;18.67;3.25;;;1.40;99.90;;;;;;1858737;77;21385;-71
2022/01/21 06:17:52;;;;;;;8.33;2.90;;;1.50;99.90;;;;;;1858575;77;21055;-72
2022/01/21 06:20:19;;;;;;;13.88;3.35;;;1.50;99.90;;;;;;1852798;75;21088;-72
2022/01/21 06:22:47;;;;;;;15.75;4.37;;;1.50;99.90;;;;;;1852064;76;21084;-72
2022/01/21 06:25:14;;;;;;;20.30;4.17;;;1.40;99.90;;;;;;1853429;76;21134;-73
2022/01/21 06:27:41;;;;;;;13.05;3.37;;;1.40;99.90;;;;;;1850689;76;21146;-73
2022/01/21 06:30:09;;;;;;;7.80;3.45;;;1.40;99.90;;;;;;1850211;76;21480;-71
2022/01/21 06:32:36;;;;;;;11.28;3.72;;;1.40;99.90;;;;;;1854104;76;21053;-73
2022/01/21 06:35:03;;;;;;;12.18;3.50;;;1.40;99.90;;;;;;1854237;76;21500;-73
2022/01/21 06:37:31;;;;;;;10.90;3.85;;;1.40;99.90;;;;;;1853036;77;21052;-74
2022/01/21 06:39:59;;;;;;;8.95;3.30;;;1.40;99.90;;;;;;1852893;76;21497;-73
2022/01/21 06:42:28;;;;;;;13.32;3.80;;;1.50;99.90;;;;;;1852093;77;21196;-74
2022/01/21 06:44:55;;;;;;;10.80;3.42;;;1.50;99.90;;;;;;1845520;77;21061;-75
2022/01/21 06:47:24;;;;;;;13.15;4.00;;;1.50;99.90;;;;;;1848463;77;21158;-74
2022/01/21 06:49:51;;;;;;;11.65;3.67;;;1.50;99.90;;;;;;1849981;75;21109;-76
2022/01/21 06:52:20;;;;;;;9.33;3.65;;;1.60;99.90;;;;;;1840952;75;21041;-77
2022/01/21 06:54:48;;;;;;;10.10;3.52;;;1.50;99.90;;;;;;1852070;77;21064;-77
2022/01/21 06:57:16;;;;;;;16.90;3.75;;;1.60;99.90;;;;;;1851424;76;21075;-77
2022/01/21 06:59:43;;;;;;;14.40;3.83;;;1.60;99.90;;;;;;1854340;76;21052;-76
2022/01/21 07:02:10;;;;;;;16.87;4.20;;;1.60;99.90;;;;;;1855382;77;21146;-77
2022/01/21 07:04:39;;;;;;;10.85;3.92;;;1.60;99.90;;;;;;1827363;77;21143;-76
2022/01/21 07:07:06;;;;;;;12.73;3.12;;;1.60;99.90;;;;;;1871793;76;21206;-76
2022/01/21 07:09:33;;;;;;;12.68;3.98;;;1.50;99.90;;;;;;1841319;77;21082;-75
2022/01/21 07:12:01;;;;;;;19.17;3.70;;;1.50;99.90;;;;;;1829116;77;21098;-74
2022/01/21 07:14:28;;;;;;;14.28;3.52;;;1.50;99.90;;;;;;1841471;78;21011;-75
2022/01/21 07:16:55;;;;;;;15.03;3.42;;;1.60;99.90;;;;;;1858706;77;21020;-75
2022/01/21 07:19:23;;;;;;;10.60;3.80;;;1.60;99.90;;;;;;1852656;76;21476;-75
2022/01/21 07:21:50;;;;;;;12.78;4.00;;;1.60;99.90;;;;;;1842233;77;21145;-73
2022/01/21 07:24:17;;;;;;;12.88;4.08;;;1.60;99.90;;;;;;1841412;78;21427;-73
2022/01/21 07:26:44;;;;;;;12.28;3.65;;;1.70;99.90;;;;;;1858710;77;21102;-74
2022/01/21 07:29:12;;;;;;;8.23;3.42;;;1.60;99.90;;;;;;1855693;76;21480;-74
2022/01/21 07:31:39;;;;;;;8.15;3.45;;;1.60;99.90;;;;;;1849206;77;21075;-74
2022/01/21 07:34:06;;;;;;;13.90;4.00;;;1.60;99.90;;;;;;1849659;76;21167;-75
2022/01/21 07:36:34;;;;;;;12.13;3.47;;;1.60;99.90;;;;;;1883920;76;21051;-73
2022/01/21 07:39:03;;;;;;;13.60;3.80;;;1.60;99.90;;;;;;1817313;77;21604;-73
2022/01/21 07:41:30;;;;;;;17.55;4.33;;;1.60;99.90;;;;;;1840797;77;21278;-74
2022/01/21 07:43:57;;;;;;;17.73;4.50;;;1.70;99.90;;;;;;1872573;76;21547;-73
2022/01/21 07:46:26;;;;;;;9.20;4.25;;;1.70;99.90;;;;;;1841068;77;21091;-75
2022/01/21 07:48:54;;;;;;;12.75;4.78;;;1.70;99.90;;;;;;1840669;78;21083;-75
2022/01/21 07:51:22;;;;;;;17.27;4.55;;;1.80;99.90;;;;;;1854897;75;21494;-75
2022/01/21 07:53:49;;;;;;;18.05;4.65;;;1.80;99.90;;;;;;1856096;76;21076;-76
2022/01/21 07:56:16;;;;;;;13.78;4.15;;;1.90;99.90;;;;;;1829312;77;21166;-74
2022/01/21 07:58:44;;;;;;;16.00;4.40;;;1.80;99.90;;;;;;1858477;77;21087;-75
2022/01/21 08:01:11;;;;;;;16.02;3.90;;;1.90;99.90;;;;;;1840224;77;21250;-75
2022/01/21 08:03:38;;;;;;;10.38;4.05;;;1.80;99.90;;;;;;1817738;78;21086;-74
2022/01/21 08:06:06;;;;;;;16.05;3.87;;;1.80;99.90;;;;;;1879917;76;21024;-74
2022/01/21 08:08:33;;;;;;;10.93;4.15;;;1.90;99.90;;;;;;1830572;77;21145;-74
2022/01/21 08:11:00;;;;;;;11.43;4.15;;;2.00;99.90;;;;;;1877318;76;21047;-75
2022/01/21 08:13:28;;;;;;;16.70;4.87;;;1.90;99.90;;;;;;1870788;76;21185;-74
2022/01/21 08:15:56;;;;;;;15.53;4.20;;;1.90;99.90;;;;;;1835238;78;21153;-73
2022/01/21 08:18:23;;;;;;;11.95;3.85;;;1.80;99.90;;;;;;1877976;76;21419;-74
2022/01/21 08:20:51;;;;;;;11.53;4.40;;;1.90;99.90;;;;;;1822893;78;21218;-74
2022/01/21 08:23:18;;;;;;;20.32;4.87;;;1.90;99.90;;;;;;1827793;77;21187;-74
2022/01/21 08:25:47;;;;;;;8.43;3.95;;;2.00;99.90;;;;;;1794415;78;21070;-75
2022/01/21 08:28:14;;;;;;;17.77;3.83;;;2.10;99.90;;;;;;1845345;75;21142;-73
2022/01/21 08:30:42;;;;;;;9.28;3.58;;;2.20;99.90;;;;;;1828113;77;21079;-73
2022/01/21 08:33:09;;;;;;;13.78;4.60;;;2.20;99.90;;;;;;1836912;77;21156;-74
2022/01/21 08:35:36;;;;;;;10.63;4.08;;;2.40;99.90;;;;;;1830788;77;21146;-74
2022/01/21 08:38:05;;;;;;;13.15;3.85;;;2.50;99.90;;;;;;1830140;78;21078;-74
2022/01/21 08:40:32;;;;;;;16.60;3.60;;;2.60;99.90;;;;;;1878667;76;21148;-74
2022/01/21 08:42:59;;;;;;;13.80;4.42;;;2.70;99.90;;;;;;1840793;78;21084;-74
2022/01/21 08:45:29;;;;;;;16.07;4.03;;;2.80;99.90;;;;;;1836408;77;21507;-74
2022/01/21 08:47:56;;;;;;;15.25;4.37;;;2.80;99.90;;;;;;1844374;77;21146;-75
2022/01/21 08:50:23;;;;;;;13.50;4.62;;;2.80;99.90;;;;;;1858766;77;21109;-74
2022/01/21 08:52:55;;;;;;;10.15;3.98;;;2.90;99.90;;;;;;1829389;77;21087;-74
2022/01/21 08:55:20;;;;;;;16.77;4.00;;;3.00;99.90;;;;;;1845691;77;21143;-76
2022/01/21 08:57:48;;;;;;;14.80;4.40;;;2.80;99.90;;;;;;1838436;77;21066;-75
2022/01/21 09:00:17;;;;;;;14.30;4.65;;;2.80;99.90;;;;;;1858847;77;21020;-74
2022/01/21 09:02:45;;;;;;;16.32;4.53;;;2.70;99.90;;;;;;1830221;77;21105;-75
2022/01/21 09:05:12;;;;;;;14.98;4.12;;;2.70;99.90;;;;;;1845107;77;21084;-74
2022/01/21 09:07:39;;;;;;;12.40;3.83;;;2.80;99.90;;;;;;1837067;77;21096;-74
2022/01/21 09:10:07;;;;;;;21.62;4.97;;;2.60;99.90;;;;;;1826360;77;21177;-74
2022/01/21 09:12:34;;;;;;;17.35;5.25;;;2.70;99.90;;;;;;1859140;77;21113;-75
2022/01/21 09:15:02;;;;;;;13.80;4.42;;;2.80;99.90;;;;;;1814360;77;21085;-75
2022/01/21 09:17:29;;;;;;;16.62;4.15;;;2.90;99.90;;;;;;1842581;77;21084;-74
2022/01/21 09:19:56;;;;;;;15.90;4.97;;;2.90;99.90;;;;;;1826627;77;21081;-74
2022/01/21 09:22:24;;;;;;;10.08;3.83;;;2.90;99.90;;;;;;1841164;77;21101;-75
2022/01/21 09:24:53;;;;;;;12.98;3.35;;;3.00;99.90;;;;;;1837706;77;21188;-75
2022/01/21 09:27:20;;;;;;;16.05;3.90;;;3.00;99.90;;;;;;1836458;77;21202;-75
2022/01/21 09:29:47;;;;;;;17.42;4.30;;;2.90;99.90;;;;;;1858830;77;21087;-74
2022/01/21 09:32:15;;;;;;;9.60;4.03;;;2.90;99.90;;;;;;1843468;77;21072;-74
2022/01/21 09:34:42;;;;;;;11.22;4.08;;;2.90;99.90;;;;;;1818965;77;21143;-75
2022/01/21 09:37:10;;;;;;;17.70;4.42;;;2.90;99.90;;;;;;1830249;78;21487;-75
2022/01/21 09:39:39;;;;;;;14.73;4.85;;;3.00;99.90;;;;;;1866040;76;21141;-75
2022/01/21 09:42:07;;;;;;;14.15;4.87;;;3.10;99.90;;;;;;1885998;76;21082;-75
2022/01/21 09:44:34;;;;;;;9.55;4.08;;;3.20;99.90;;;;;;1836047;78;21149;-74
2022/01/21 09:47:03;;;;;;;13.45;3.87;;;3.20;99.90;;;;;;1866545;76;21145;-74
2022/01/21 09:49:30;;;;;;;18.75;4.12;;;3.40;99.90;;;;;;1832506;78;21123;-74
2022/01/21 09:52:03;;;;;;;16.82;3.95;;;3.40;99.90;;;;;;1829452;77;21159;-74
2022/01/21 09:54:32;;;;;;;13.40;4.33;;;3.50;99.90;;;;;;1858867;77;21381;-74
2022/01/21 09:57:00;;;;;;;13.13;4.22;;;3.40;99.90;;;;;;1813911;76;21079;-73
2022/01/21 09:59:30;;;;;;;15.98;4.12;;;3.40;99.90;;;;;;1845982;77;21166;-74
2022/01/21 10:02:03;;;;;;;14.50;3.80;;;3.50;99.90;;;;;;1836580;77;21715;-75
2022/01/21 10:04:35;;;;;;;10.10;4.37;;;3.50;99.90;;;;;;1859160;77;21101;-76
2022/01/21 10:07:03;;;;;;;19.65;4.33;;;3.40;99.90;;;;;;1859081;77;21162;-74
2022/01/21 10:09:30;;;;;;;17.60;4.53;;;3.40;99.90;;;;;;1830823;76;21501;-75
2022/01/21 10:12:01;;;;;;;15.98;4.20;;;3.50;99.90;;;;;;1843118;77;21139;-75
2022/01/21 10:14:30;;;;;;;13.15;4.10;;;3.70;99.90;;;;;;1841180;77;21244;-75
2022/01/21 10:16:58;;;;;;;12.53;4.25;;;3.60;99.90;;;;;;1825394;78;21195;-75
2022/01/21 10:19:28;;;;;;;12.85;4.12;;;3.70;99.90;;;;;;1870241;76;21063;-75
2022/01/21 10:22:09;;;;;;;11.15;4.53;;;3.70;99.90;;;;;;1851673;76;21098;-76
2022/01/21 10:24:38;;;;;;;11.75;4.33;;;3.90;99.90;;;;;;1730201;77;21126;-75
2022/01/21 10:27:06;;;;;;;15.00;4.42;;;3.70;99.90;;;;;;1820005;79;21149;-75
2022/01/21 10:29:43;;;;;;;10.25;3.98;;;3.50;99.90;;;;;;1785706;80;21114;-75
2022/01/21 10:32:11;;;;;;;18.48;4.55;;;3.50;99.90;;;;;;1822331;78;21103;-74
2022/01/21 10:34:40;;;;;;;8.98;4.35;;;3.60;99.90;;;;;;1783073;80;21321;-76
2022/01/21 10:37:26;;;;;;;10.00;4.15;;;3.60;99.90;;;;;;1815069;77;21491;-74
2022/01/21 10:40:09;;;;;;;10.20;3.87;;;3.70;99.90;;;;;;1822920;79;21149;-76
2022/01/21 10:42:37;;;;;;;11.45;4.87;;;3.80;99.90;;;;;;1803755;78;21477;-76
2022/01/21 10:45:06;;;;;;;8.05;3.92;;;3.60;99.90;;;;;;1807408;79;21115;-75
2022/01/21 10:47:36;;;;;;;12.13;4.45;;;3.70;99.90;;;;;;1815175;78;21080;-76
2022/01/21 10:50:09;;;;;;;12.05;4.37;;;3.60;99.90;;;;;;1817966;79;21134;-75
2022/01/21 10:52:53;;;;;;;10.80;5.37;;;3.60;99.90;;;;;;1810476;78;21101;-76
2022/01/21 10:55:32;;;;;;;9.90;4.80;;;3.50;99.90;;;;;;1798988;79;21294;-74
2022/01/21 10:58:14;;;;;;;12.78;4.58;;;3.50;99.90;;;;;;1812798;78;21061;-75
2022/01/21 11:01:01;;;;;;;12.07;4.85;;;3.60;99.90;;;;;;1818761;78;21225;-75
2022/01/21 11:03:30;;;;;;;15.72;5.03;;;3.50;99.90;;;;;;1784849;78;21171;-75
2022/01/21 11:06:16;;;;;;;18.15;5.08;;;3.60;99.90;;;;;;1818648;78;21539;-75
2022/01/21 11:08:43;;;;;;;11.43;4.15;;;3.60;99.90;;;;;;1783615;80;21558;-76
2022/01/21 11:11:12;;;;;;;12.55;4.17;;;3.80;99.90;;;;;;1821793;79;21052;-76
2022/01/21 11:13:40;;;;;;;11.15;4.10;;;3.70;99.90;;;;;;1818010;78;21170;-76
2022/01/21 11:16:15;;;;;;;16.80;4.78;;;3.70;99.90;;;;;;1808040;78;21178;-76
2022/01/21 11:18:51;;;;;;;11.90;4.17;;;3.70;99.90;;;;;;1820451;78;21560;-75
2022/01/21 11:21:18;;;;;;;23.52;4.60;;;3.50;99.90;;;;;;1819456;78;21178;-75
2022/01/21 11:23:45;;;;;;;19.12;4.22;;;3.50;99.90;;;;;;1815810;78;21308;-74
2022/01/21 11:26:15;;;;;;;14.47;4.20;;;3.90;99.90;;;;;;1781381;80;21095;-74
2022/01/21 11:28:50;;;;;;;15.85;4.55;;;3.70;99.90;;;;;;1812051;78;21175;-74
2022/01/21 11:31:22;;;;;;;12.07;3.58;;;3.90;99.90;;;;;;1783235;80;21106;-73
2022/01/21 11:33:49;;;;;;;15.30;3.65;;;4.00;99.90;;;;;;1756510;79;21256;-73
2022/01/21 11:36:18;;;;;;;10.88;3.83;;;3.80;99.90;;;;;;1753079;81;21178;-74
2022/01/21 11:38:45;;;;;;;8.05;3.65;;;4.00;99.90;;;;;;1814353;79;21558;-75
2022/01/21 11:41:14;;;;;;;6.92;3.33;;;3.80;99.90;;;;;;1805023;78;21105;-75
2022/01/21 11:43:50;;;;;;;14.50;3.85;;;3.90;99.90;;;;;;1814349;78;21060;-74
2022/01/21 11:46:24;;;;;;;8.55;3.55;;;4.00;99.90;;;;;;1812355;79;21065;-75
2022/01/21 11:48:51;;;;;;;14.58;3.47;;;3.60;99.90;;;;;;1810734;78;21112;-75
2022/01/21 11:51:27;;;;;;;12.90;4.33;;;3.70;99.90;;;;;;1785377;80;21209;-75
2022/01/21 11:53:59;;;;;;;14.40;3.72;;;3.80;99.90;;;;;;1811486;78;21080;-75
2022/01/21 11:56:49;;;;;;;25.72;4.08;;;3.90;99.90;;;;;;1804440;78;21104;-75
2022/01/21 11:59:38;;;;;;;8.20;3.15;;;3.80;99.90;;;;;;1769770;78;21106;-75
2022/01/21 12:02:19;;;;;;;13.98;3.37;;;3.80;99.90;;;;;;1792757;79;21139;-75
2022/01/21 12:04:57;;;;;;;9.28;3.42;;;3.90;99.90;;;;;;1807659;78;21576;-77
2022/01/21 12:07:44;;;;;;;18.35;3.80;;;4.10;99.90;;;;;;1821008;78;21036;-76
2022/01/21 12:10:29;;;;;;;15.40;3.52;;;4.20;99.90;;;;;;1810763;78;21174;-75
2022/01/21 12:13:03;;;;;;;11.48;2.87;;;4.10;99.90;;;;;;1819918;79;21123;-75
2022/01/21 12:20:55;;;;;;;8.80;2.90;;;3.90;99.90;;;;;;1814225;79;21605;-75
2022/01/21 12:23:24;;;;;;;23.87;3.55;;;3.90;99.90;;;;;;1820856;78;21099;-75
2022/01/21 12:26:12;;;;;;;14.70;3.17;;;3.90;99.90;;;;;;1811607;78;21497;-75
2022/01/21 12:28:40;;;;;;;6.37;2.70;;;3.90;99.90;;;;;;1823281;78;21122;-76
2022/01/21 12:31:07;;;;;;;8.95;2.52;;;4.00;99.90;;;;;;1817741;78;21489;-76
2022/01/21 12:34:06;;;;;;;6.87;2.20;;;4.10;99.90;;;;;;1813223;79;21068;-78
2022/01/21 12:36:34;;;;;;;9.75;2.60;;;4.10;99.90;;;;;;1812467;78;21930;-78
2022/01/21 12:41:36;;;;;;;12.23;2.35;;;4.00;99.90;;;;;;1817009;78;21162;-76
2022/01/21 12:44:08;;;;;;;11.65;2.40;;;3.90;99.90;;;;;;1806589;76;21173;-77
2022/01/21 12:46:40;;;;;;;22.22;2.80;;;3.80;99.90;;;;;;1814830;79;21145;-72
2022/01/21 12:49:29;;;;;;;13.18;2.72;;;3.80;99.90;;;;;;1810218;78;21195;-75
2022/01/21 12:52:10;;;;;;;25.88;3.37;;;3.80;99.90;;;;;;1810783;78;21092;-78
2022/01/21 12:57:11;;;;;;;21.17;3.27;;;3.90;99.90;;;;;;1783158;80;21162;-77
2022/01/21 12:59:38;;;;;;;14.78;2.85;;;4.00;99.90;;;;;;1784222;80;21133;-75
2022/01/21 13:02:06;;;;;;;7.55;2.25;;;4.20;99.90;;;;;;1783568;80;21092;-77
2022/01/21 13:04:46;;;;;;;7.83;2.30;;;4.10;99.90;;;;;;1802486;78;21116;-76
2022/01/21 13:07:15;;;;;;;12.40;3.25;;;4.10;99.90;;;;;;1807025;78;21093;-77
2022/01/21 13:10:03;;;;;;;7.47;1.80;;;3.90;99.90;;;;;;1810178;78;21097;-76
2022/01/21 13:12:58;;;;;;;5.65;2.25;;;3.90;99.90;;;;;;1781766;80;21087;-77
2022/01/21 13:15:13;;;;;;;11.12;2.20;;;3.80;99.90;;;;;;1808377;77;21589;-75
2022/01/21 13:17:41;;;;;;;7.95;2.35;;;3.70;99.90;;;;;;1818306;79;21146;-78
2022/01/21 13:20:08;;;;;;;8.05;2.37;;;3.60;99.90;;;;;;1784259;79;21453;-78
2022/01/21 13:22:36;;;;;;;6.12;2.08;;;3.70;99.90;;;;;;1811984;78;21088;-80
2022/01/21 13:25:15;;;;;;;7.30;2.22;;;3.80;99.90;;;;;;1812199;78;21109;-75
2022/01/21 13:27:50;;;;;;;12.03;2.72;;;3.80;99.90;;;;;;1815524;78;21105;-81
2022/01/21 13:30:20;;;;;;;11.03;2.70;;;3.90;99.90;;;;;;1807018;79;21105;-78
2022/01/21 13:32:47;;;;;;;14.93;2.37;;;4.00;99.90;;;;;;1822811;78;21134;-75
2022/01/21 13:35:17;;;;;;;10.18;2.30;;;4.00;99.90;;;;;;1781878;80;21173;-79
2022/01/21 13:38:15;;;;;;;11.03;2.12;;;3.90;99.90;;;;;;1753814;80;21174;-81
2022/01/21 13:40:54;;;;;;;6.40;2.37;;;4.00;99.90;;;;;;1820768;77;21230;-82
2022/01/21 13:43:26;;;;;;;10.23;2.45;;;3.90;99.90;;;;;;1817069;78;21104;-82
2022/01/21 13:46:01;;;;;;;6.28;2.47;;;3.90;99.90;;;;;;1821521;76;21068;-82
2022/01/21 13:48:31;;;;;;;19.82;2.25;;;3.90;99.90;;;;;;1811522;78;21097;-81
2022/01/21 13:50:59;;;;;;;7.87;2.20;;;3.70;99.90;;;;;;1818617;78;21103;-81
2022/01/21 13:53:27;;;;;;;10.35;2.50;;;3.70;99.90;;;;;;1805758;78;21080;-80
2022/01/21 13:55:56;;;;;;;5.70;2.55;;;3.80;99.90;;;;;;1776935;80;21149;-80
2022/01/21 13:58:27;;;;;;;11.28;2.50;;;3.80;99.90;;;;;;1815606;78;21178;-81
2022/01/21 14:01:03;;;;;;;9.13;1.85;;;3.70;99.90;;;;;;1821577;78;21480;-79